Time;durP1;ratioP1;P1;durP2;ratioP2;P2;SDS_P1;SDS_P2;PMS_P1;PMS_P2;Temp;Humidity;BMP_temperature;BMP_pressure;BME280_temperature;BME280_humidity;BME280_pressure;Samples;Min_cycle;Max_cycle;Signal;HPM_P1;HPM_P2
2024/01/01 00:01:18;;;;;;;5.40;4.87;;;;;231.90;258443.00;;;;5115922;28;20223;-61
2024/01/01 00:03:45;;;;;;;7.53;4.23;;;;;231.90;258443.00;;;;5116275;28;20189;-60
2024/01/01 00:06:13;;;;;;;5.43;4.93;;;;;231.90;258443.00;;;;5116925;28;20205;-60
2024/01/01 00:08:42;;;;;;;5.23;4.17;;;;;231.90;258443.00;;;;5116336;28;20182;-60
2024/01/01 00:11:09;;;;;;;4.13;3.77;;;;;231.90;258443.00;;;;5115489;28;20214;-60
2024/01/01 00:13:37;;;;;;;3.87;3.23;;;;;231.90;258443.00;;;;5115424;28;20207;-60
2024/01/01 00:16:04;;;;;;;7.47;2.23;;;;;231.90;258443.00;;;;5115481;28;20198;-61
2024/01/01 00:18:32;;;;;;;3.97;2.97;;;;;231.90;258443.00;;;;5115479;28;20669;-61
2024/01/01 00:21:00;;;;;;;2.47;2.30;;;;;231.90;258443.00;;;;5115345;28;20194;-60
2024/01/01 00:23:27;;;;;;;3.03;2.73;;;;;231.90;258443.00;;;;5115272;28;20258;-60
2024/01/01 00:25:56;;;;;;;2.20;2.10;;;;;231.90;258443.00;;;;5115196;28;20276;-60
2024/01/01 00:28:24;;;;;;;4.10;3.70;;;;;231.90;258443.00;;;;5115198;28;20189;-60
2024/01/01 00:30:51;;;;;;;2.67;2.47;;;;;231.90;258443.00;;;;5115047;28;20215;-61
2024/01/01 00:33:18;;;;;;;2.63;2.43;;;;;231.90;258443.00;;;;5114956;28;20221;-61
2024/01/01 00:35:47;;;;;;;3.90;3.13;;;;;231.90;258443.00;;;;5115289;28;20644;-61
2024/01/01 00:38:14;;;;;;;2.63;2.17;;;;;231.90;258443.00;;;;5114712;28;20208;-61
2024/01/01 00:40:42;;;;;;;1.80;1.70;;;;;231.90;258443.00;;;;5114889;28;20191;-62
2024/01/01 00:43:11;;;;;;;2.20;2.10;;;;;231.90;258443.00;;;;5114807;28;20210;-61
2024/01/01 00:45:38;;;;;;;3.40;2.73;;;;;231.90;258443.00;;;;5114804;28;20183;-61
2024/01/01 00:48:06;;;;;;;2.20;2.00;;;;;231.90;258443.00;;;;5114488;28;20190;-59
2024/01/01 00:50:34;;;;;;;3.77;3.10;;;;;231.90;258443.00;;;;5115110;28;20281;-59
2024/01/01 00:53:01;;;;;;;2.83;2.57;;;;;231.90;258443.00;;;;5114692;28;20301;-61
2024/01/01 00:55:28;;;;;;;5.53;3.57;;;;;231.90;258443.00;;;;5114732;28;20660;-61
2024/01/01 00:57:56;;;;;;;3.53;2.87;;;;;231.90;258443.00;;;;5114513;28;20225;-61
2024/01/01 01:00:25;;;;;;;3.47;2.70;;;;;231.90;258443.00;;;;5115226;28;20193;-61
2024/01/01 01:02:52;;;;;;;2.57;2.37;;;;;231.90;258443.00;;;;5114822;28;20213;-60
2024/01/01 01:05:20;;;;;;;2.13;2.03;;;;;231.90;258443.00;;;;5114806;28;20220;-61
2024/01/01 01:07:47;;;;;;;1.93;1.83;;;;;231.90;258443.00;;;;5114531;28;20653;-62
2024/01/01 01:10:15;;;;;;;1.80;1.70;;;;;231.90;258443.00;;;;5114413;28;20209;-61
2024/01/01 01:12:42;;;;;;;1.90;1.80;;;;;231.90;258443.00;;;;5114437;28;20719;-61
2024/01/01 01:15:10;;;;;;;1.00;1.00;;;;;231.90;258443.00;;;;5114294;28;20527;-60
2024/01/01 01:17:38;;;;;;;1.73;1.63;;;;;231.90;258443.00;;;;5114333;28;20710;-60
2024/01/01 01:20:06;;;;;;;2.33;1.07;;;;;231.90;258443.00;;;;5114360;28;20221;-61
2024/01/01 01:22:33;;;;;;;1.03;1.03;;;;;231.90;258443.00;;;;5113534;28;20206;-61
2024/01/01 01:25:01;;;;;;;0.77;0.77;;;;;231.90;258443.00;;;;5114234;28;20190;-61
2024/01/01 01:27:28;;;;;;;1.67;1.57;;;;;231.90;258443.00;;;;5114127;28;20198;-61
2024/01/01 01:29:56;;;;;;;1.03;1.03;;;;;231.90;258443.00;;;;5112703;28;20193;-60
2024/01/01 01:32:23;;;;;;;1.20;1.07;;;;;231.90;258443.00;;;;5113991;28;20217;-60
2024/01/01 01:34:52;;;;;;;1.33;1.27;;;;;231.90;258443.00;;;;5112666;28;20228;-60
2024/01/01 01:37:19;;;;;;;1.43;1.33;;;;;231.90;258443.00;;;;5113852;28;20270;-61
2024/01/01 01:39:47;;;;;;;1.60;1.10;;;;;231.90;258443.00;;;;5114438;28;20190;-61
2024/01/01 01:42:14;;;;;;;0.97;0.97;;;;;231.90;258443.00;;;;5113789;28;20221;-61
2024/01/01 01:44:41;;;;;;;1.57;1.47;;;;;231.90;258443.00;;;;5114110;28;20201;-61
2024/01/01 01:47:10;;;;;;;1.47;1.37;;;;;231.90;258443.00;;;;5113865;28;20201;-61
2024/01/01 01:49:41;;;;;;;0.97;0.97;;;;;231.90;258443.00;;;;5113649;28;20202;-63
2024/01/01 01:52:11;;;;;;;0.60;0.60;;;;;231.90;258443.00;;;;5114091;28;20214;-61
2024/01/01 01:54:39;;;;;;;0.80;0.80;;;;;231.90;258443.00;;;;5114048;28;20198;-62
2024/01/01 01:57:07;;;;;;;0.60;0.60;;;;;231.90;258443.00;;;;5113664;28;20202;-61
2024/01/01 01:59:35;;;;;;;0.70;0.70;;;;;231.90;258443.00;;;;5113687;28;20219;-61
2024/01/01 02:02:02;;;;;;;0.90;0.90;;;;;231.90;258443.00;;;;5114143;28;20804;-61
2024/01/01 02:04:30;;;;;;;0.80;0.80;;;;;231.90;258443.00;;;;5095399;28;20194;-62
2024/01/01 02:06:57;;;;;;;0.70;0.70;;;;;231.90;258443.00;;;;5113618;28;20189;-62
2024/01/01 02:09:26;;;;;;;0.80;0.80;;;;;231.90;258443.00;;;;5113450;28;20616;-60
2024/01/01 02:11:54;;;;;;;0.73;0.73;;;;;231.90;258443.00;;;;5113455;28;20222;-62
2024/01/01 02:14:21;;;;;;;0.87;0.87;;;;;231.90;258443.00;;;;5113684;28;20672;-61
2024/01/01 02:16:49;;;;;;;0.63;0.63;;;;;231.90;258443.00;;;;5113462;28;20190;-61
2024/01/01 02:19:20;;;;;;;0.60;0.60;;;;;231.90;258443.00;;;;5113311;28;20239;-61
2024/01/01 02:21:49;;;;;;;0.70;0.70;;;;;231.90;258443.00;;;;5113321;28;20319;-62
2024/01/01 02:24:18;;;;;;;0.90;0.90;;;;;231.90;258443.00;;;;5113590;28;20194;-62
2024/01/01 02:26:46;;;;;;;2.13;1.23;;;;;231.90;258443.00;;;;5113367;28;20649;-62
2024/01/01 02:29:14;;;;;;;1.30;1.20;;;;;231.90;258443.00;;;;5113586;28;20194;-61
2024/01/01 02:31:42;;;;;;;3.33;1.33;;;;;231.90;258443.00;;;;5113390;28;20693;-61
2024/01/01 02:34:09;;;;;;;0.70;0.70;;;;;231.90;258443.00;;;;5114128;27;20194;-61
2024/01/01 02:36:38;;;;;;;1.17;1.17;;;;;231.90;258443.00;;;;5117637;28;20186;-62
2024/01/01 02:39:07;;;;;;;2.53;1.20;;;;;231.90;258443.00;;;;5117862;28;20210;-62
2024/01/01 02:41:39;;;;;;;0.73;0.73;;;;;231.90;258443.00;;;;5117402;28;20549;-61
2024/01/01 02:44:07;;;;;;;1.00;1.00;;;;;231.90;258443.00;;;;5118342;28;20225;-61
2024/01/01 02:46:35;;;;;;;0.93;0.93;;;;;231.90;258443.00;;;;5117638;28;20190;-60
2024/01/01 02:49:02;;;;;;;0.90;0.90;;;;;231.90;258443.00;;;;5117491;28;20638;-60
2024/01/01 02:51:30;;;;;;;1.13;1.13;;;;;231.90;258443.00;;;;5117245;28;20209;-61
2024/01/01 02:53:57;;;;;;;1.33;1.23;;;;;231.90;258443.00;;;;5117131;28;20218;-62
2024/01/01 02:56:25;;;;;;;0.87;0.87;;;;;231.90;258443.00;;;;5117010;28;20657;-62
2024/01/01 02:58:55;;;;;;;1.10;1.10;;;;;231.90;258443.00;;;;5116981;28;20227;-61
2024/01/01 03:01:22;;;;;;;1.27;1.13;;;;;231.90;258443.00;;;;5116854;28;20265;-61
2024/01/01 03:03:50;;;;;;;1.00;0.90;;;;;231.90;258443.00;;;;5115651;28;20629;-61
2024/01/01 03:06:19;;;;;;;0.90;0.90;;;;;231.90;258443.00;;;;5116871;28;20582;-62
2024/01/01 03:08:47;;;;;;;0.87;0.87;;;;;231.90;258443.00;;;;5116803;28;20646;-61
2024/01/01 03:11:14;;;;;;;9.93;1.90;;;;;231.90;258443.00;;;;5116716;28;20201;-61
2024/01/01 03:13:42;;;;;;;0.63;0.63;;;;;231.90;258443.00;;;;5116618;28;20217;-61
2024/01/01 03:16:11;;;;;;;0.60;0.60;;;;;231.90;258443.00;;;;5116610;28;20204;-61
2024/01/01 03:18:38;;;;;;;0.93;0.93;;;;;231.90;258443.00;;;;5116999;28;20223;-62
2024/01/01 03:21:06;;;;;;;0.90;0.90;;;;;231.90;258443.00;;;;5116670;28;20196;-61
2024/01/01 03:23:34;;;;;;;0.90;0.90;;;;;231.90;258443.00;;;;5116433;28;20213;-61
2024/01/01 03:26:01;;;;;;;1.47;1.37;;;;;231.90;258443.00;;;;5116445;28;20565;-61
2024/01/01 03:28:29;;;;;;;0.83;0.83;;;;;231.90;258443.00;;;;5116413;28;20255;-61
2024/01/01 03:30:57;;;;;;;0.70;0.70;;;;;231.90;258443.00;;;;5116439;28;20193;-61
2024/01/01 03:33:25;;;;;;;0.63;0.63;;;;;231.90;258443.00;;;;5116316;28;20218;-61
2024/01/01 03:35:53;;;;;;;0.80;0.80;;;;;231.90;258443.00;;;;5116403;28;20198;-60
2024/01/01 03:38:20;;;;;;;0.70;0.70;;;;;231.90;258443.00;;;;5116801;28;20669;-60
2024/01/01 03:40:48;;;;;;;0.87;0.87;;;;;231.90;258443.00;;;;5116601;28;20186;-60
2024/01/01 03:43:16;;;;;;;0.83;0.83;;;;;231.90;258443.00;;;;5116038;28;20210;-60
2024/01/01 03:45:43;;;;;;;0.90;0.90;;;;;231.90;258443.00;;;;5115781;28;20198;-60
2024/01/01 03:48:11;;;;;;;0.60;0.60;;;;;231.90;258443.00;;;;5097580;28;20205;-60
2024/01/01 03:50:40;;;;;;;0.60;0.60;;;;;231.90;258443.00;;;;5116006;28;20557;-60
2024/01/01 03:53:08;;;;;;;8.90;1.07;;;;;231.90;258443.00;;;;5116168;28;20206;-60
2024/01/01 03:55:35;;;;;;;1.13;1.03;;;;;231.90;258443.00;;;;5115864;28;20198;-60
2024/01/01 03:58:02;;;;;;;0.83;0.83;;;;;231.90;258443.00;;;;5115828;28;20221;-62
2024/01/01 04:00:30;;;;;;;0.93;0.93;;;;;231.90;258443.00;;;;5115834;28;20186;-61
2024/01/01 04:02:57;;;;;;;0.70;0.70;;;;;231.90;258443.00;;;;5116173;28;20300;-61
2024/01/01 04:05:25;;;;;;;0.70;0.70;;;;;231.90;258443.00;;;;5116201;28;20638;-61
2024/01/01 04:07:53;;;;;;;0.60;0.60;;;;;231.90;258443.00;;;;5115652;28;20190;-60
2024/01/01 04:10:21;;;;;;;0.67;0.67;;;;;231.90;258443.00;;;;5115698;28;20190;-60
2024/01/01 04:12:48;;;;;;;0.60;0.60;;;;;231.90;258443.00;;;;5115511;28;20203;-60
2024/01/01 04:15:16;;;;;;;0.60;0.60;;;;;231.90;258443.00;;;;5115490;28;20633;-60
2024/01/01 04:17:43;;;;;;;0.80;0.80;;;;;231.90;258443.00;;;;5115595;28;20193;-60
2024/01/01 04:20:12;;;;;;;1.30;1.20;;;;;231.90;258443.00;;;;5115592;28;20214;-62
2024/01/01 04:22:40;;;;;;;1.60;1.00;;;;;231.90;258443.00;;;;5115319;28;20753;-61
2024/01/01 04:25:09;;;;;;;0.70;0.70;;;;;231.90;258443.00;;;;5115325;28;20293;-60
2024/01/01 04:27:37;;;;;;;0.70;0.70;;;;;231.90;258443.00;;;;5115338;28;20251;-61
2024/01/01 04:30:05;;;;;;;3.43;1.47;;;;;231.90;258443.00;;;;5115656;28;20195;-61
2024/01/01 04:32:32;;;;;;;0.60;0.60;;;;;231.90;258443.00;;;;5115383;28;20297;-58
2024/01/01 04:35:00;;;;;;;0.60;0.60;;;;;231.90;258443.00;;;;5115464;28;20622;-61
2024/01/01 04:37:27;;;;;;;0.70;0.70;;;;;231.90;258443.00;;;;5115628;28;20191;-61
2024/01/01 04:39:54;;;;;;;0.73;0.73;;;;;231.90;258443.00;;;;5115046;28;20224;-61
2024/01/01 04:42:25;;;;;;;0.70;0.70;;;;;231.90;258443.00;;;;5115033;28;20209;-61
2024/01/01 04:44:52;;;;;;;0.77;0.77;;;;;231.90;258443.00;;;;5115471;28;20198;-62
2024/01/01 04:47:20;;;;;;;0.60;0.60;;;;;231.90;258443.00;;;;5097576;28;20194;-61
2024/01/01 04:49:47;;;;;;;0.67;0.67;;;;;231.90;258443.00;;;;5115310;28;20191;-61
2024/01/01 04:52:14;;;;;;;0.80;0.80;;;;;231.90;258443.00;;;;5114951;28;20239;-61
2024/01/01 04:54:42;;;;;;;0.97;0.97;;;;;231.90;258443.00;;;;5114765;28;20197;-60
2024/01/01 04:57:09;;;;;;;1.60;1.03;;;;;231.90;258443.00;;;;5113760;28;20669;-61
2024/01/01 04:59:38;;;;;;;0.60;0.60;;;;;231.90;258443.00;;;;5114537;28;20224;-60
2024/01/01 05:02:05;;;;;;;1.07;1.03;;;;;231.90;258443.00;;;;5114427;28;20210;-61
2024/01/01 05:04:33;;;;;;;0.90;0.90;;;;;231.90;258443.00;;;;5113197;28;20533;-60
2024/01/01 05:07:00;;;;;;;0.90;0.90;;;;;231.90;258443.00;;;;5114832;28;20201;-59
2024/01/01 05:09:28;;;;;;;0.60;0.60;;;;;231.90;258443.00;;;;5114905;28;20243;-59
2024/01/01 05:11:55;;;;;;;1.10;1.03;;;;;231.90;258443.00;;;;5114360;28;20210;-59
2024/01/01 05:14:23;;;;;;;0.93;0.93;;;;;231.90;258443.00;;;;5114457;28;20186;-60
2024/01/01 05:16:52;;;;;;;0.60;0.60;;;;;231.90;258443.00;;;;5114792;28;20194;-59
2024/01/01 05:19:19;;;;;;;1.77;1.67;;;;;231.90;258443.00;;;;5114153;28;20241;-59
2024/01/01 05:21:46;;;;;;;1.43;1.33;;;;;231.90;258443.00;;;;5114286;28;20210;-59
2024/01/01 05:24:14;;;;;;;0.80;0.80;;;;;231.90;258443.00;;;;5114461;28;20194;-59
2024/01/01 05:26:41;;;;;;;0.97;0.97;;;;;231.90;258443.00;;;;5114405;28;20186;-59
2024/01/01 05:29:08;;;;;;;5.80;1.63;;;;;231.90;258443.00;;;;5114060;28;20194;-60
2024/01/01 05:31:36;;;;;;;0.60;0.60;;;;;231.90;258443.00;;;;5114500;28;20197;-60
2024/01/01 05:34:05;;;;;;;0.80;0.80;;;;;231.90;258443.00;;;;5114293;28;20190;-60
2024/01/01 05:36:32;;;;;;;2.60;1.23;;;;;231.90;258443.00;;;;5114057;28;20604;-59
2024/01/01 05:39:00;;;;;;;1.33;1.23;;;;;231.90;258443.00;;;;5113908;28;20221;-59
2024/01/01 05:41:27;;;;;;;3.80;1.73;;;;;231.90;258443.00;;;;5113868;28;20190;-59
2024/01/01 05:43:55;;;;;;;0.83;0.83;;;;;231.90;258443.00;;;;5114143;28;20568;-59
2024/01/01 05:46:22;;;;;;;0.70;0.70;;;;;231.90;258443.00;;;;5114094;28;20238;-60
2024/01/01 05:48:49;;;;;;;0.70;0.70;;;;;231.90;258443.00;;;;5113730;28;20288;-60
2024/01/01 05:51:18;;;;;;;0.90;0.90;;;;;231.90;258443.00;;;;5114340;28;20190;-60
2024/01/01 05:53:46;;;;;;;0.60;0.60;;;;;231.90;258443.00;;;;5114053;28;20194;-60
2024/01/01 05:56:13;;;;;;;0.70;0.70;;;;;231.90;258443.00;;;;5113716;28;20190;-60
2024/01/01 05:58:40;;;;;;;2.20;1.00;;;;;231.90;258443.00;;;;5114681;28;20216;-60
2024/01/01 06:01:08;;;;;;;0.83;0.83;;;;;231.90;258443.00;;;;5114367;28;20197;-60
2024/01/01 06:03:36;;;;;;;0.60;0.60;;;;;231.90;258443.00;;;;5114186;28;20219;-60
2024/01/01 06:06:03;;;;;;;1.17;1.17;;;;;231.90;258443.00;;;;5114191;28;20193;-60
2024/01/01 06:08:33;;;;;;;0.60;0.60;;;;;231.90;258443.00;;;;5113855;28;20182;-60
2024/01/01 06:11:00;;;;;;;0.80;0.80;;;;;231.90;258443.00;;;;5114962;28;20221;-60
2024/01/01 06:13:28;;;;;;;0.60;0.60;;;;;231.90;258443.00;;;;5114579;28;20214;-60
2024/01/01 06:15:55;;;;;;;0.70;0.70;;;;;231.90;258443.00;;;;5113784;28;20194;-61
2024/01/01 06:18:25;;;;;;;0.80;0.80;;;;;231.90;258443.00;;;;5113568;28;20190;-61
2024/01/01 06:20:52;;;;;;;11.33;1.00;;;;;231.90;258443.00;;;;5113488;28;20182;-61
2024/01/01 06:23:19;;;;;;;0.60;0.60;;;;;231.90;258443.00;;;;5113481;28;20216;-61
2024/01/01 06:25:48;;;;;;;1.33;1.23;;;;;231.90;258443.00;;;;5113707;28;20245;-60
2024/01/01 06:28:15;;;;;;;0.93;0.93;;;;;231.90;258443.00;;;;5113397;28;20194;-60
2024/01/01 06:30:43;;;;;;;0.50;0.50;;;;;231.90;258443.00;;;;5113455;28;20213;-61
2024/01/01 06:33:10;;;;;;;0.90;0.90;;;;;231.90;258443.00;;;;5113495;28;20210;-61
2024/01/01 06:35:38;;;;;;;3.60;1.23;;;;;231.90;258443.00;;;;5113608;28;20186;-61
2024/01/01 06:38:05;;;;;;;1.80;0.70;;;;;231.90;258443.00;;;;5112094;28;20200;-61
2024/01/01 06:40:33;;;;;;;0.83;0.83;;;;;231.90;258443.00;;;;5113249;28;20210;-61
2024/01/01 06:43:02;;;;;;;1.43;0.90;;;;;231.90;258443.00;;;;5113267;28;20291;-61
2024/01/01 06:45:29;;;;;;;0.90;0.90;;;;;231.90;258443.00;;;;5113186;28;20190;-61
2024/01/01 06:47:56;;;;;;;0.87;0.87;;;;;231.90;258443.00;;;;5113041;28;20182;-61
2024/01/01 06:50:24;;;;;;;0.70;0.70;;;;;231.90;258443.00;;;;5113208;28;20228;-61
2024/01/01 06:52:51;;;;;;;0.63;0.63;;;;;231.90;258443.00;;;;5113974;28;20287;-61
2024/01/01 06:55:19;;;;;;;0.70;0.70;;;;;231.90;258443.00;;;;5113225;28;20218;-66
2024/01/01 06:57:46;;;;;;;0.60;0.60;;;;;231.90;258443.00;;;;5113808;28;20688;-60
2024/01/01 07:00:17;;;;;;;0.60;0.60;;;;;231.90;258443.00;;;;5113581;28;20270;-60
2024/01/01 07:02:44;;;;;;;0.70;0.70;;;;;231.90;258443.00;;;;5113361;28;20329;-61
2024/01/01 07:05:12;;;;;;;0.60;0.60;;;;;231.90;258443.00;;;;5113018;28;20194;-61
2024/01/01 07:07:39;;;;;;;0.70;0.70;;;;;231.90;258443.00;;;;5112985;28;20191;-61
2024/01/01 07:10:07;;;;;;;0.70;0.70;;;;;231.90;258443.00;;;;5113233;28;20189;-61
2024/01/01 07:12:36;;;;;;;0.67;0.67;;;;;231.90;258443.00;;;;5112896;28;20571;-61
2024/01/01 07:15:04;;;;;;;0.60;0.60;;;;;231.90;258443.00;;;;5112961;28;20621;-61
2024/01/01 07:17:32;;;;;;;0.87;0.87;;;;;231.90;258443.00;;;;5112924;28;20198;-62
2024/01/01 07:20:00;;;;;;;0.97;0.97;;;;;231.90;258443.00;;;;5113629;28;20216;-61
2024/01/01 07:22:27;;;;;;;0.53;0.53;;;;;231.90;258443.00;;;;5117033;28;20210;-61
2024/01/01 07:24:55;;;;;;;0.70;0.70;;;;;231.90;258443.00;;;;5115815;28;20229;-61
2024/01/01 07:27:23;;;;;;;0.60;0.60;;;;;231.90;258443.00;;;;5116497;28;20197;-61
2024/01/01 07:29:50;;;;;;;0.60;0.60;;;;;231.90;258443.00;;;;5117015;28;20189;-61
2024/01/01 07:32:17;;;;;;;0.70;0.70;;;;;231.90;258443.00;;;;5116822;28;20220;-61
2024/01/01 07:34:46;;;;;;;0.50;0.50;;;;;231.90;258443.00;;;;5116671;28;20194;-60
2024/01/01 07:37:14;;;;;;;0.60;0.60;;;;;231.90;258443.00;;;;5116710;28;20269;-61
2024/01/01 07:39:42;;;;;;;0.60;0.60;;;;;231.90;258443.00;;;;5098340;28;20218;-61
2024/01/01 07:42:09;;;;;;;0.93;0.93;;;;;231.90;258443.00;;;;5116783;28;20210;-60
2024/01/01 07:44:36;;;;;;;19.97;1.27;;;;;231.90;258443.00;;;;5116853;28;20201;-61
2024/01/01 07:47:04;;;;;;;0.60;0.60;;;;;231.90;258443.00;;;;5116120;28;20197;-61
2024/01/01 07:49:31;;;;;;;0.70;0.70;;;;;231.90;258443.00;;;;5116083;28;20186;-62
2024/01/01 07:52:01;;;;;;;0.80;0.80;;;;;231.90;258443.00;;;;5116094;28;20206;-62
2024/01/01 07:54:29;;;;;;;0.77;0.77;;;;;231.90;258443.00;;;;5116177;28;20286;-61
2024/01/01 07:56:56;;;;;;;0.73;0.73;;;;;231.90;258443.00;;;;5116279;28;20201;-61
2024/01/01 07:59:24;;;;;;;1.03;0.93;;;;;231.90;258443.00;;;;5116279;28;20573;-61
2024/01/01 08:01:51;;;;;;;0.60;0.60;;;;;231.90;258443.00;;;;5116334;28;20249;-59
2024/01/01 08:04:18;;;;;;;0.90;0.90;;;;;231.90;258443.00;;;;5116442;28;20195;-59
2024/01/01 08:06:46;;;;;;;0.60;0.60;;;;;231.90;258443.00;;;;5115984;28;20243;-60
2024/01/01 08:09:15;;;;;;;0.80;0.80;;;;;231.90;258443.00;;;;5115814;28;20190;-61
2024/01/01 08:11:42;;;;;;;0.60;0.60;;;;;231.90;258443.00;;;;5115799;28;20239;-62
2024/01/01 08:14:09;;;;;;;0.70;0.70;;;;;231.90;258443.00;;;;5115519;28;20550;-61
2024/01/01 08:16:37;;;;;;;0.60;0.60;;;;;231.90;258443.00;;;;5116832;28;20542;-61
2024/01/01 08:19:07;;;;;;;0.60;0.60;;;;;231.90;258443.00;;;;5116391;28;20552;-62
2024/01/01 08:21:34;;;;;;;0.70;0.70;;;;;231.90;258443.00;;;;5115848;28;20239;-62
2024/01/01 08:24:02;;;;;;;0.70;0.70;;;;;231.90;258443.00;;;;5116614;28;20201;-60
2024/01/01 08:26:30;;;;;;;0.60;0.60;;;;;231.90;258443.00;;;;5116220;28;20193;-62
2024/01/01 08:28:58;;;;;;;0.97;0.87;;;;;231.90;258443.00;;;;5115272;28;20679;-61
2024/01/01 08:31:25;;;;;;;0.70;0.70;;;;;231.90;258443.00;;;;5115428;28;20186;-62
2024/01/01 08:33:53;;;;;;;0.60;0.60;;;;;231.90;258443.00;;;;5115708;28;20193;-61
2024/01/01 08:36:20;;;;;;;0.57;0.57;;;;;231.90;258443.00;;;;5115039;28;20204;-62
2024/01/01 08:38:47;;;;;;;0.60;0.60;;;;;231.90;258443.00;;;;5115088;28;20699;-61
2024/01/01 08:41:15;;;;;;;0.60;0.60;;;;;231.90;258443.00;;;;5114945;28;20259;-61
2024/01/01 08:43:43;;;;;;;0.70;0.70;;;;;231.90;258443.00;;;;5114906;28;20221;-61
2024/01/01 08:46:11;;;;;;;0.60;0.60;;;;;231.90;258443.00;;;;5114951;28;20199;-61
2024/01/01 08:48:38;;;;;;;0.60;0.60;;;;;231.90;258443.00;;;;5114827;28;20198;-61
2024/01/01 08:51:06;;;;;;;0.70;0.70;;;;;231.90;258443.00;;;;5114844;28;20187;-61
2024/01/01 08:53:34;;;;;;;0.80;0.80;;;;;231.90;258443.00;;;;5114711;28;20214;-61
2024/01/01 08:56:01;;;;;;;0.60;0.60;;;;;231.90;258443.00;;;;5096496;28;20197;-61
2024/01/01 08:58:29;;;;;;;1.93;0.97;;;;;231.90;258443.00;;;;5114883;28;20196;-61
2024/01/01 09:00:58;;;;;;;0.80;0.80;;;;;231.90;258443.00;;;;5114894;28;20218;-61
2024/01/01 09:03:27;;;;;;;0.80;0.80;;;;;231.90;258443.00;;;;5114704;28;20547;-61
2024/01/01 09:05:56;;;;;;;1.57;1.47;;;;;231.90;258443.00;;;;5114681;28;20197;-62
2024/01/01 09:08:23;;;;;;;0.67;0.67;;;;;231.90;258443.00;;;;5096372;28;20247;-61
2024/01/01 09:10:51;;;;;;;1.83;1.73;;;;;231.90;258443.00;;;;5114736;28;20269;-61
2024/01/01 09:13:18;;;;;;;0.60;0.60;;;;;231.90;258443.00;;;;5114646;28;20221;-61
2024/01/01 09:15:46;;;;;;;1.17;0.90;;;;;231.90;258443.00;;;;5115465;28;20208;-61
2024/01/01 09:18:15;;;;;;;0.57;0.57;;;;;231.90;258443.00;;;;5115562;28;20190;-61
2024/01/01 09:20:42;;;;;;;5.93;1.60;;;;;231.90;258443.00;;;;5115208;28;20213;-62
2024/01/01 09:23:09;;;;;;;4.80;1.10;;;;;231.90;258443.00;;;;5115126;28;20209;-61
2024/01/01 09:25:40;;;;;;;0.80;0.80;;;;;231.90;258443.00;;;;5096441;28;20208;-61
2024/01/01 09:28:07;;;;;;;1.00;0.93;;;;;231.90;258443.00;;;;5114563;28;20613;-60
2024/01/01 09:30:35;;;;;;;0.70;0.70;;;;;231.90;258443.00;;;;5114694;28;20182;-62
2024/01/01 09:33:02;;;;;;;0.53;0.53;;;;;231.90;258443.00;;;;5114218;28;20220;-61
2024/01/01 09:35:32;;;;;;;2.73;0.77;;;;;231.90;258443.00;;;;5114287;28;20197;-62
2024/01/01 09:38:02;;;;;;;1.07;1.07;;;;;231.90;258443.00;;;;5114075;28;20190;-61
2024/01/01 09:40:30;;;;;;;0.50;0.50;;;;;231.90;258443.00;;;;5114494;28;20247;-61
2024/01/01 09:42:58;;;;;;;0.60;0.60;;;;;231.90;258443.00;;;;5113832;28;20219;-61
2024/01/01 09:45:28;;;;;;;1.03;1.03;;;;;231.90;258443.00;;;;5095792;28;20297;-61
2024/01/01 09:47:56;;;;;;;1.30;1.20;;;;;231.90;258443.00;;;;5114230;28;20653;-61
2024/01/01 09:50:23;;;;;;;0.80;0.80;;;;;231.90;258443.00;;;;5114307;28;20181;-62
2024/01/01 09:53:00;;;;;;;0.60;0.60;;;;;231.90;258443.00;;;;5113639;28;20682;-61
2024/01/01 09:55:29;;;;;;;0.60;0.60;;;;;231.90;258443.00;;;;5095832;28;20647;-61
2024/01/01 09:57:57;;;;;;;12.90;0.93;;;;;231.90;258443.00;;;;5113786;28;20190;-61
2024/01/01 10:00:25;;;;;;;3.70;1.33;;;;;231.90;258443.00;;;;5114087;28;20300;-61
2024/01/01 10:03:06;;;;;;;0.80;0.80;;;;;231.90;258443.00;;;;5113720;28;20239;-61
2024/01/01 10:05:33;;;;;;;0.60;0.60;;;;;231.90;258443.00;;;;5113944;28;20193;-61
2024/01/01 10:08:10;;;;;;;0.73;0.73;;;;;231.90;258443.00;;;;5114523;28;20288;-61
2024/01/01 10:10:38;;;;;;;0.67;0.67;;;;;231.90;258443.00;;;;5114849;28;20183;-61
2024/01/01 10:13:08;;;;;;;0.80;0.80;;;;;231.90;258443.00;;;;5113600;28;20207;-61
2024/01/01 10:15:40;;;;;;;1.03;1.00;;;;;231.90;258443.00;;;;5114132;28;20200;-61
2024/01/01 10:18:14;;;;;;;1.10;1.00;;;;;231.90;258443.00;;;;5114115;28;20190;-61
2024/01/01 10:20:43;;;;;;;0.90;0.90;;;;;231.90;258443.00;;;;5113596;28;20194;-61
2024/01/01 10:23:28;;;;;;;0.70;0.70;;;;;231.90;258443.00;;;;5113454;28;20700;-61
2024/01/01 10:26:06;;;;;;;5.63;1.37;;;;;231.90;258443.00;;;;5113885;28;20598;-61
2024/01/01 10:28:34;;;;;;;0.70;0.70;;;;;231.90;258443.00;;;;5113565;28;20264;-61
2024/01/01 10:31:02;;;;;;;0.70;0.70;;;;;231.90;258443.00;;;;5095244;28;20222;-61
2024/01/01 10:33:32;;;;;;;2.10;1.47;;;;;231.90;258443.00;;;;5113281;28;20206;-61
2024/01/01 10:36:03;;;;;;;0.67;0.67;;;;;231.90;258443.00;;;;5113832;28;20591;-61
2024/01/01 10:38:32;;;;;;;5.60;1.27;;;;;231.90;258443.00;;;;5113681;28;20190;-61
2024/01/01 10:41:02;;;;;;;0.60;0.60;;;;;231.90;258443.00;;;;5113246;28;20222;-61
2024/01/01 10:43:29;;;;;;;0.70;0.70;;;;;231.90;258443.00;;;;5113125;28;20215;-61
2024/01/01 10:46:04;;;;;;;5.00;1.97;;;;;231.90;258443.00;;;;5095097;28;20194;-61
2024/01/01 10:48:33;;;;;;;0.60;0.60;;;;;231.90;258443.00;;;;5113229;28;20306;-61
2024/01/01 10:51:42;;;;;;;0.80;0.80;;;;;231.90;258443.00;;;;5113289;28;20676;-60
2024/01/01 10:54:46;;;;;;;1.20;1.13;;;;;231.90;258443.00;;;;5113060;28;20743;-60
2024/01/01 10:57:29;;;;;;;2.50;1.53;;;;;231.90;258443.00;;;;5117201;28;20179;-60
2024/01/01 11:00:05;;;;;;;1.33;1.23;;;;;231.90;258443.00;;;;5117080;28;20178;-61
2024/01/01 11:02:33;;;;;;;1.97;1.87;;;;;231.90;258443.00;;;;5117298;28;20214;-61
2024/01/01 11:05:08;;;;;;;0.60;0.60;;;;;231.90;258443.00;;;;5116987;28;20688;-62
2024/01/01 11:07:58;;;;;;;1.27;1.17;;;;;231.90;258443.00;;;;5117120;28;20280;-61
2024/01/01 11:10:41;;;;;;;0.73;0.73;;;;;231.90;258443.00;;;;5116804;28;20194;-61
2024/01/01 11:13:13;;;;;;;1.03;1.03;;;;;231.90;258443.00;;;;5116843;28;20210;-61
2024/01/01 11:15:41;;;;;;;1.43;1.33;;;;;231.90;258443.00;;;;5117183;28;20192;-60
2024/01/01 11:18:16;;;;;;;0.70;0.70;;;;;231.90;258443.00;;;;5098534;28;20194;-61
2024/01/01 11:20:51;;;;;;;0.80;0.80;;;;;231.90;258443.00;;;;5116684;28;20225;-61
2024/01/01 11:23:44;;;;;;;1.10;1.10;;;;;231.90;258443.00;;;;5115199;28;20690;-62
2024/01/01 11:26:34;;;;;;;0.50;0.50;;;;;231.90;258443.00;;;;5116795;28;20186;-62
2024/01/01 11:29:07;;;;;;;0.70;0.70;;;;;231.90;258443.00;;;;5117035;28;20237;-62
2024/01/01 11:31:35;;;;;;;1.07;1.07;;;;;231.90;258443.00;;;;5116720;28;20196;-62
2024/01/01 11:34:08;;;;;;;0.63;0.63;;;;;231.90;258443.00;;;;5116412;28;20238;-62
2024/01/01 11:36:40;;;;;;;0.70;0.70;;;;;231.90;258443.00;;;;5116657;28;20580;-62
2024/01/01 11:39:08;;;;;;;0.67;0.67;;;;;231.90;258443.00;;;;5116486;28;20197;-62
2024/01/01 11:41:35;;;;;;;1.20;1.10;;;;;231.90;258443.00;;;;5116273;28;20710;-61
2024/01/01 11:44:11;;;;;;;1.53;1.37;;;;;231.90;258443.00;;;;5116662;28;20189;-61
2024/01/01 11:46:39;;;;;;;0.60;0.60;;;;;231.90;258443.00;;;;5116653;28;20275;-61
2024/01/01 11:49:07;;;;;;;10.27;0.80;;;;;231.90;258443.00;;;;5116386;28;20198;-61
2024/01/01 11:51:49;;;;;;;0.80;0.80;;;;;231.90;258443.00;;;;5116503;28;20196;-61
2024/01/01 11:54:17;;;;;;;3.50;1.50;;;;;231.90;258443.00;;;;5116785;28;20182;-61
2024/01/01 11:56:46;;;;;;;2.33;1.83;;;;;231.90;258443.00;;;;5117017;28;20194;-62
2024/01/01 11:59:16;;;;;;;0.80;0.80;;;;;231.90;258443.00;;;;5116249;28;20189;-62
2024/01/01 12:01:45;;;;;;;0.60;0.60;;;;;231.90;258443.00;;;;5116447;28;20228;-64
2024/01/01 12:04:13;;;;;;;1.10;1.10;;;;;231.90;258443.00;;;;5116779;28;20186;-62
2024/01/01 12:06:41;;;;;;;0.60;0.60;;;;;231.90;258443.00;;;;5115396;28;20224;-62